createdAt,value
2019-03-01T00:00:30.642Z,8.83
2019-03-01T00:02:34.791Z,8.80
2019-03-01T00:03:35.027Z,8.76
2019-03-01T00:05:39.197Z,8.74
2019-03-01T00:06:39.435Z,8.81
2019-03-01T00:08:32.512Z,8.76
2019-03-01T00:09:32.750Z,8.76
2019-03-01T00:11:36.919Z,8.70
2019-03-01T00:12:37.157Z,8.77
2019-03-01T00:14:41.332Z,8.76
2019-03-01T00:15:41.565Z,8.73
2019-03-01T00:17:45.712Z,8.70
2019-03-01T00:18:45.948Z,8.80
2019-03-01T00:20:50.125Z,8.76
2019-03-01T00:21:50.363Z,8.74
2019-03-01T00:23:54.514Z,8.73
2019-03-01T00:24:54.779Z,8.80
2019-03-01T00:26:58.921Z,8.91
2019-03-01T00:27:59.156Z,8.81
2019-03-01T00:30:03.328Z,8.91
2019-03-01T00:31:03.562Z,8.87
2019-03-01T00:33:07.713Z,8.80
2019-03-01T00:34:07.951Z,8.94
2019-03-01T00:36:12.126Z,8.76
2019-03-01T00:37:12.363Z,8.87
2019-03-01T00:39:16.512Z,8.92
2019-03-01T00:40:16.750Z,8.87
2019-03-01T00:42:20.919Z,8.94
2019-03-01T00:43:21.155Z,8.91
2019-03-01T00:45:25.329Z,8.95
2019-03-01T00:46:25.568Z,8.91
2019-03-01T00:48:18.644Z,9.04
2019-03-01T00:49:18.880Z,8.94
2019-03-01T00:51:23.051Z,9.04
2019-03-01T00:52:23.286Z,8.96
2019-03-01T00:54:27.439Z,8.98
2019-03-01T00:55:27.673Z,9.01
2019-03-01T00:57:31.847Z,9.05
2019-03-01T00:58:32.084Z,9.02
2019-03-01T01:00:36.266Z,9.11
2019-03-01T01:01:36.506Z,9.13
2019-03-01T01:03:40.656Z,9.23
2019-03-01T01:04:40.892Z,9.15
2019-03-01T01:06:45.064Z,9.11
2019-03-01T01:07:45.299Z,9.02
2019-03-01T01:09:49.445Z,8.86
2019-03-01T01:10:49.685Z,8.96
2019-03-01T01:12:53.855Z,8.91
2019-03-01T01:13:54.094Z,8.94
2019-03-01T01:15:58.239Z,8.89
2019-03-01T01:16:58.486Z,8.83
2019-03-01T01:19:02.646Z,8.77
2019-03-01T01:20:02.885Z,8.73
2019-03-01T01:22:07.055Z,8.79
2019-03-01T01:23:07.292Z,8.62
2019-03-01T01:25:11.444Z,8.76
2019-03-01T01:26:11.679Z,8.79
2019-03-01T01:28:04.783Z,8.63
2019-03-01T01:29:05.017Z,8.68
2019-03-01T01:31:09.165Z,8.55
2019-03-01T01:32:09.402Z,8.52
2019-03-01T01:34:13.574Z,8.66
2019-03-01T01:35:13.809Z,8.63
2019-03-01T01:37:17.977Z,8.59
2019-03-01T01:38:18.214Z,8.56
2019-03-01T01:40:22.364Z,8.71
2019-03-01T01:41:22.602Z,8.65
2019-03-01T01:43:26.767Z,8.63
2019-03-01T01:44:27.001Z,8.62
2019-03-01T01:46:31.149Z,8.62
2019-03-01T01:47:31.391Z,8.59
2019-03-01T01:49:35.568Z,8.53
2019-03-01T01:50:35.796Z,8.65
2019-03-01T01:52:39.969Z,8.62
2019-03-01T01:53:40.204Z,8.61
2019-03-01T01:55:44.350Z,8.56
2019-03-01T01:56:44.586Z,8.48
2019-03-01T01:58:37.682Z,8.44
2019-03-01T01:59:37.918Z,8.47
2019-03-01T02:01:42.069Z,8.50
2019-03-01T02:02:42.303Z,8.38
2019-03-01T02:04:46.487Z,8.47
2019-03-01T02:05:46.712Z,8.40
2019-03-01T02:07:50.891Z,8.44
2019-03-01T02:08:51.126Z,8.45
2019-03-01T02:10:55.275Z,8.47
2019-03-01T02:11:55.510Z,8.48
2019-03-01T02:13:59.678Z,8.38
2019-03-01T02:14:59.913Z,8.40
2019-03-01T02:17:04.058Z,8.37
2019-03-01T02:18:04.295Z,8.40
2019-03-01T02:20:08.464Z,8.38
2019-03-01T02:21:08.701Z,8.34
2019-03-01T02:23:12.886Z,8.37
2019-03-01T02:24:13.119Z,8.30
2019-03-01T02:26:17.268Z,8.37
2019-03-01T02:27:17.501Z,8.33
2019-03-01T02:29:22.681Z,8.33
2019-03-01T02:30:23.022Z,8.26
2019-03-01T02:32:27.067Z,8.36
2019-03-01T02:33:27.302Z,8.28
2019-03-01T02:35:31.475Z,8.22
2019-03-01T02:36:31.714Z,8.20
2019-03-01T02:38:24.808Z,8.22
2019-03-01T02:39:25.052Z,8.16
2019-03-01T02:41:29.193Z,8.18
2019-03-01T02:42:29.427Z,8.16
2019-03-01T02:44:33.591Z,8.19
2019-03-01T02:45:33.826Z,8.08
2019-03-01T02:47:37.999Z,8.07
2019-03-01T02:48:38.221Z,8.10
2019-03-01T02:50:42.377Z,8.12
2019-03-01T02:51:42.616Z,8.10
2019-03-01T02:53:46.794Z,8.05
2019-03-01T02:54:47.018Z,7.97
2019-03-01T02:56:51.173Z,8.05
2019-03-01T02:57:51.403Z,7.95
2019-03-01T02:59:55.571Z,8.00
2019-03-01T03:00:55.830Z,8.02
2019-03-01T03:02:59.955Z,8.02
2019-03-01T03:04:00.191Z,8.02
2019-03-01T03:06:04.370Z,7.97
2019-03-01T03:07:04.601Z,8.01
2019-03-01T03:09:08.776Z,8.01
2019-03-01T03:10:09.008Z,8.02
2019-03-01T03:12:13.154Z,7.93
2019-03-01T03:13:13.403Z,8.01
2019-03-01T03:15:17.562Z,7.97
2019-03-01T03:16:17.797Z,8.01
2019-03-01T03:18:10.881Z,8.07
2019-03-01T03:19:11.110Z,7.93
2019-03-01T03:21:15.275Z,8.00
2019-03-01T03:22:15.520Z,7.92
2019-03-01T03:24:19.655Z,8.02
2019-03-01T03:25:19.896Z,7.95
2019-03-01T03:27:24.063Z,8.00
2019-03-01T03:28:24.297Z,8.04
2019-03-01T03:30:28.492Z,8.04
2019-03-01T03:31:28.704Z,7.93
2019-03-01T03:33:32.849Z,7.97
2019-03-01T03:34:33.085Z,7.98
2019-03-01T03:36:37.263Z,8.05
2019-03-01T03:37:37.493Z,8.01
2019-03-01T03:39:41.636Z,8.01
2019-03-01T03:42:05.803Z,8.07
2019-03-01T03:43:06.034Z,8.00
2019-03-01T03:45:10.226Z,7.92
2019-03-01T03:46:10.464Z,7.98
2019-03-01T03:48:03.536Z,7.93
2019-03-01T03:49:03.771Z,7.93
2019-03-01T03:51:07.943Z,7.89
2019-03-01T03:52:08.174Z,8.00
2019-03-01T03:54:12.322Z,8.01
2019-03-01T03:55:12.558Z,7.93
2019-03-01T03:57:16.732Z,7.92
2019-03-01T03:58:16.970Z,7.97
2019-03-01T04:00:21.136Z,7.93
2019-03-01T04:01:21.370Z,7.90
2019-03-01T04:03:25.519Z,7.92
2019-03-01T04:04:25.757Z,7.93
2019-03-01T04:06:29.924Z,7.97
2019-03-01T04:07:30.168Z,7.98
2019-03-01T04:09:34.310Z,7.98
2019-03-01T04:10:34.545Z,7.93
2019-03-01T04:12:38.717Z,7.93
2019-03-01T04:13:38.961Z,7.97
2019-03-01T04:15:43.124Z,7.98
2019-03-01T04:16:43.361Z,7.97
2019-03-01T04:18:36.438Z,7.95
2019-03-01T04:19:36.672Z,7.97
2019-03-01T04:21:40.843Z,7.92
2019-03-01T04:22:41.078Z,7.87
2019-03-01T04:24:45.227Z,7.93
2019-03-01T04:25:45.465Z,7.83
2019-03-01T04:27:49.630Z,7.93
2019-03-01T04:28:49.870Z,7.95
2019-03-01T04:30:54.013Z,7.97
2019-03-01T04:31:54.253Z,7.95
2019-03-01T04:33:58.417Z,7.89
2019-03-01T04:34:58.660Z,7.95
2019-03-01T04:37:02.824Z,7.89
2019-03-01T04:38:03.095Z,7.90
2019-03-01T04:40:07.205Z,7.93
2019-03-01T04:41:07.437Z,7.90
2019-03-01T04:43:11.610Z,7.79
2019-03-01T04:44:11.842Z,7.82
2019-03-01T04:46:15.991Z,7.85
2019-03-01T04:47:16.227Z,7.79
2019-03-01T04:49:20.396Z,7.80
2019-03-01T04:50:20.630Z,7.80
2019-03-01T04:52:24.798Z,7.82
2019-03-01T04:53:25.036Z,7.79
2019-03-01T04:55:29.191Z,7.75
2019-03-01T04:56:29.428Z,7.77
2019-03-01T04:58:22.526Z,7.77
2019-03-01T04:59:22.764Z,7.79
2019-03-01T05:01:26.910Z,7.77
2019-03-01T05:02:27.145Z,7.82
2019-03-01T05:04:31.322Z,7.77
2019-03-01T05:05:31.557Z,7.85
2019-03-01T05:07:35.736Z,7.82
2019-03-01T05:08:35.969Z,7.80
2019-03-01T05:10:40.115Z,7.79
2019-03-01T05:11:40.352Z,7.82
2019-03-01T05:13:44.523Z,7.82
2019-03-01T05:14:44.756Z,7.85
2019-03-01T05:16:48.915Z,7.83
2019-03-01T05:17:49.151Z,7.82
2019-03-01T05:19:53.336Z,7.89
2019-03-01T05:20:53.566Z,7.95
2019-03-01T05:22:57.733Z,7.97
2019-03-01T05:23:57.969Z,7.89
2019-03-01T05:26:02.114Z,7.90
2019-03-01T05:27:02.356Z,7.98
2019-03-01T05:29:06.530Z,7.90
2019-03-01T05:30:06.764Z,7.95
2019-03-01T05:32:10.912Z,7.85
2019-03-01T05:33:11.150Z,7.92
2019-03-01T05:35:15.326Z,7.98
2019-03-01T05:36:15.554Z,7.93
2019-03-01T05:38:08.649Z,8.01
2019-03-01T05:39:08.885Z,7.92
2019-03-01T05:41:13.027Z,7.90
2019-03-01T05:42:13.265Z,7.98
2019-03-01T05:44:17.436Z,7.97
2019-03-01T05:45:17.672Z,7.93
2019-03-01T05:47:21.817Z,7.95
2019-03-01T05:48:22.054Z,7.92
2019-03-01T05:50:26.227Z,8.02
2019-03-01T05:51:26.462Z,7.92
2019-03-01T05:53:30.611Z,8.02
2019-03-01T05:54:30.850Z,7.93
2019-03-01T05:56:35.014Z,8.07
2019-03-01T05:57:35.252Z,7.98
2019-03-01T05:59:39.417Z,7.98
2019-03-01T06:00:39.654Z,8.01
2019-03-01T06:02:44.810Z,7.98
2019-03-01T06:03:45.045Z,8.02
2019-03-01T06:05:49.221Z,8.00
2019-03-01T06:06:49.454Z,8.00
2019-03-01T06:08:53.608Z,7.93
2019-03-01T06:09:53.838Z,7.95
2019-03-01T06:11:58.005Z,7.87
2019-03-01T06:12:58.241Z,7.93
2019-03-01T06:15:02.418Z,7.93
2019-03-01T06:16:02.657Z,8.02
2019-03-01T06:17:55.736Z,8.05
2019-03-01T06:18:55.973Z,8.04
2019-03-01T06:21:00.142Z,8.00
2019-03-01T06:22:00.378Z,7.98
2019-03-01T06:24:04.519Z,8.02
2019-03-01T06:25:04.754Z,7.97
2019-03-01T06:27:08.928Z,8.01
2019-03-01T06:28:09.162Z,8.02
2019-03-01T06:30:13.341Z,7.98
2019-03-01T06:31:13.581Z,8.04
2019-03-01T06:33:17.752Z,8.07
2019-03-01T06:34:17.992Z,8.01
2019-03-01T06:36:22.165Z,8.07
2019-03-01T06:37:22.400Z,8.07
2019-03-01T06:39:26.552Z,8.11
2019-03-01T06:40:26.790Z,8.01
2019-03-01T06:42:30.965Z,8.01
2019-03-01T06:43:31.201Z,8.08
2019-03-01T06:45:35.351Z,8.08
2019-03-01T06:46:35.593Z,8.12
2019-03-01T06:48:28.697Z,8.10
2019-03-01T06:49:28.938Z,8.22
2019-03-01T06:51:33.111Z,8.25
2019-03-01T06:52:33.346Z,8.18
2019-03-01T06:54:37.501Z,8.25
2019-03-01T06:55:37.740Z,8.25
2019-03-01T06:57:41.904Z,8.26
2019-03-01T06:58:42.140Z,8.30
2019-03-01T07:00:50.046Z,8.23
2019-03-01T07:01:46.530Z,8.25
2019-03-01T07:03:50.700Z,8.26
2019-03-01T07:04:50.937Z,8.23
2019-03-01T07:06:55.107Z,8.26
2019-03-01T07:07:55.346Z,8.25
2019-03-01T07:09:59.501Z,8.12
2019-03-01T07:10:59.739Z,8.11
2019-03-01T07:13:03.911Z,8.25
2019-03-01T07:14:04.147Z,8.22
2019-03-01T07:16:08.300Z,8.20
2019-03-01T07:17:08.535Z,8.19
2019-03-01T07:19:12.708Z,8.11
2019-03-01T07:20:12.947Z,8.11
2019-03-01T07:22:17.118Z,8.20
2019-03-01T07:23:17.361Z,8.08
2019-03-01T07:25:21.504Z,8.05
2019-03-01T07:26:21.746Z,8.08
2019-03-01T07:28:14.846Z,8.05
2019-03-01T07:29:15.079Z,8.05
2019-03-01T07:31:19.222Z,8.07
2019-03-01T07:32:19.463Z,8.11
2019-03-01T07:34:23.627Z,8.05
2019-03-01T07:35:23.865Z,8.11
2019-03-01T07:37:28.036Z,8.04
2019-03-01T07:38:28.289Z,8.08
2019-03-01T07:40:32.414Z,8.11
2019-03-01T07:41:32.648Z,8.10
2019-03-01T07:43:36.812Z,8.10
2019-03-01T07:44:37.045Z,8.25
2019-03-01T07:46:41.248Z,8.18
2019-03-01T07:47:41.590Z,8.16
2019-03-01T07:49:45.762Z,8.23
2019-03-01T07:50:45.998Z,8.26
2019-03-01T07:52:50.168Z,8.22
2019-03-01T07:53:50.405Z,8.22
2019-03-01T07:55:54.550Z,8.30
2019-03-01T07:56:54.784Z,8.26
2019-03-01T07:59:00.267Z,8.26
2019-03-01T07:59:59.184Z,8.26
2019-03-01T08:02:04.148Z,8.28
2019-03-01T08:03:03.567Z,8.40
2019-03-01T08:05:07.738Z,8.41
2019-03-01T08:06:13.163Z,8.38
2019-03-01T08:08:03.481Z,8.36
2019-03-01T08:09:01.283Z,8.38
2019-03-01T08:11:05.449Z,8.38
2019-03-01T08:12:07.382Z,8.36
2019-03-01T08:14:10.356Z,8.43
2019-03-01T08:15:10.091Z,8.41
2019-03-01T08:17:15.249Z,8.53
2019-03-01T08:18:15.484Z,8.52
2019-03-01T08:20:19.660Z,8.52
2019-03-01T08:21:19.906Z,8.63
2019-03-01T08:23:24.044Z,8.70
2019-03-01T08:24:24.276Z,8.66
2019-03-01T08:26:30.730Z,8.65
2019-03-01T08:27:28.694Z,8.62
2019-03-01T08:29:34.079Z,8.81
2019-03-01T08:30:33.102Z,8.79
2019-03-01T08:32:37.248Z,8.95
2019-03-01T08:33:42.406Z,8.92
2019-03-01T08:35:41.653Z,8.95
2019-03-01T08:36:42.465Z,9.02
2019-03-01T08:38:34.981Z,8.87
2019-03-01T08:39:36.642Z,8.89
2019-03-01T08:41:39.362Z,8.98
2019-03-01T08:42:39.600Z,8.95
2019-03-01T08:44:43.769Z,8.99
2019-03-01T08:45:44.026Z,8.91
2019-03-01T08:47:48.943Z,9.01
2019-03-01T08:48:48.412Z,8.92
2019-03-01T08:50:52.560Z,9.04
2019-03-01T08:51:52.798Z,9.04
2019-03-01T08:53:56.975Z,9.13
2019-03-01T08:55:00.386Z,9.11
2019-03-01T08:57:01.392Z,9.21
2019-03-01T08:58:03.413Z,9.21
2019-03-01T09:00:05.786Z,9.08
2019-03-01T09:01:08.313Z,9.11
2019-03-01T09:03:10.191Z,9.24
2019-03-01T09:04:14.253Z,9.17
2019-03-01T09:06:14.574Z,9.14
2019-03-01T09:07:14.811Z,9.20
2019-03-01T09:09:20.926Z,9.20
2019-03-01T09:10:19.218Z,9.29
2019-03-01T09:12:23.390Z,9.24
2019-03-01T09:13:23.625Z,9.20
2019-03-01T09:15:27.783Z,9.26
2019-03-01T09:16:28.018Z,9.33
2019-03-01T09:18:21.117Z,9.32
2019-03-01T09:19:22.260Z,9.38
2019-03-01T09:21:25.503Z,9.26
2019-03-01T09:22:28.015Z,9.36
2019-03-01T09:24:30.017Z,9.17
2019-03-01T09:25:30.154Z,9.28
2019-03-01T09:27:34.310Z,9.38
2019-03-01T09:28:38.544Z,9.47
2019-03-01T09:30:40.360Z,9.43
2019-03-01T09:31:38.953Z,9.42
2019-03-01T09:33:43.123Z,9.38
2019-03-01T09:34:43.362Z,9.36
2019-03-01T09:36:47.512Z,9.26
2019-03-01T09:37:47.752Z,9.28
2019-03-01T09:39:53.673Z,9.47
2019-03-01T09:40:52.157Z,9.46
2019-03-01T09:42:56.336Z,9.50
2019-03-01T09:43:59.679Z,9.56
2019-03-01T09:46:00.719Z,9.65
2019-03-01T09:47:01.693Z,9.76
2019-03-01T09:49:05.136Z,9.87
2019-03-01T09:50:05.372Z,9.90
2019-03-01T09:52:09.524Z,9.83
2019-03-01T09:53:09.764Z,9.87
2019-03-01T09:55:13.939Z,9.94
2019-03-01T09:56:14.178Z,9.91
2019-03-01T09:58:08.519Z,9.86
2019-03-01T09:59:07.501Z,9.87
2019-03-01T10:01:11.672Z,9.89
2019-03-01T10:02:11.909Z,9.87
2019-03-01T10:04:16.078Z,9.91
2019-03-01T10:05:16.317Z,9.99
2019-03-01T10:07:20.466Z,10.18
2019-03-01T10:08:20.705Z,10.26
2019-03-01T10:10:24.910Z,10.09
2019-03-01T10:11:25.118Z,10.04
2019-03-01T10:13:30.419Z,10.05
2019-03-01T10:14:29.504Z,9.99
2019-03-01T10:16:33.678Z,10.01
2019-03-01T10:17:33.924Z,10.07
2019-03-01T10:19:38.096Z,10.14
2019-03-01T10:20:38.333Z,10.18
2019-03-01T10:22:42.484Z,10.27
2019-03-01T10:23:42.723Z,10.27
2019-03-01T10:25:46.901Z,10.25
2019-03-01T10:26:47.139Z,10.15
2019-03-01T10:28:40.218Z,10.20
2019-03-01T10:29:40.456Z,10.22
2019-03-01T10:31:44.631Z,10.26
2019-03-01T10:32:44.871Z,10.18
2019-03-01T10:34:49.042Z,10.33
2019-03-01T10:35:49.285Z,10.33
2019-03-01T10:37:53.787Z,10.53
2019-03-01T10:38:53.677Z,10.67
2019-03-01T10:40:57.852Z,10.99
2019-03-01T10:41:58.093Z,11.18
2019-03-01T10:44:02.241Z,11.19
2019-03-01T10:45:02.478Z,11.24
2019-03-01T10:47:06.656Z,11.47
2019-03-01T10:48:06.890Z,11.58
2019-03-01T10:50:11.068Z,12.16
2019-03-01T10:51:11.309Z,12.27
2019-03-01T10:53:15.524Z,12.16
2019-03-01T10:54:15.704Z,12.10
2019-03-01T10:56:19.880Z,12.19
2019-03-01T10:57:20.122Z,12.13
2019-03-01T10:59:24.278Z,12.13
2019-03-01T11:00:24.517Z,12.17
2019-03-01T11:02:28.695Z,12.34
2019-03-01T11:03:28.932Z,12.47
2019-03-01T11:05:33.126Z,12.42
2019-03-01T11:06:33.349Z,12.29
2019-03-01T11:08:26.436Z,12.17
2019-03-01T11:09:26.676Z,12.16
2019-03-01T11:11:30.853Z,11.96
2019-03-01T11:12:31.093Z,12.05
2019-03-01T11:14:35.246Z,11.96
2019-03-01T11:15:35.485Z,11.95
2019-03-01T11:17:39.669Z,11.90
2019-03-01T11:18:39.903Z,11.96
2019-03-01T11:20:44.083Z,12.12
2019-03-01T11:21:44.325Z,11.98
2019-03-01T11:23:48.480Z,11.91
2019-03-01T11:24:48.720Z,11.91
2019-03-01T11:26:52.921Z,11.75
2019-03-01T11:27:53.134Z,11.61
2019-03-01T11:29:57.290Z,11.33
2019-03-01T11:30:57.529Z,11.35
2019-03-01T11:33:01.713Z,11.44
2019-03-01T11:34:01.953Z,11.47
2019-03-01T11:36:06.132Z,11.36
2019-03-01T11:37:06.374Z,11.36
2019-03-01T11:39:10.527Z,11.25
2019-03-01T11:40:10.768Z,11.11
2019-03-01T11:42:14.943Z,11.02
2019-03-01T11:43:15.178Z,11.02
2019-03-01T11:45:19.335Z,10.99
2019-03-01T11:46:19.570Z,10.99
2019-03-01T11:48:12.669Z,10.94
2019-03-01T11:49:12.909Z,10.91
2019-03-01T11:51:17.065Z,10.73
2019-03-01T11:52:17.305Z,10.73
2019-03-01T11:54:21.483Z,10.59
2019-03-01T11:55:21.723Z,10.56
2019-03-01T11:57:25.897Z,10.63
2019-03-01T11:58:26.133Z,10.53
2019-03-01T12:00:30.286Z,10.48
2019-03-01T12:01:30.527Z,10.55
2019-03-01T12:03:34.701Z,10.73
2019-03-01T12:04:34.948Z,10.70
2019-03-01T12:06:39.091Z,10.92
2019-03-01T12:07:39.329Z,11.03
2019-03-01T12:09:44.512Z,11.19
2019-03-01T12:10:44.751Z,11.28
2019-03-01T12:12:48.928Z,11.37
2019-03-01T12:13:49.166Z,11.47
2019-03-01T12:15:53.319Z,11.72
2019-03-01T12:16:53.560Z,11.82
2019-03-01T12:18:57.738Z,11.99
2019-03-01T12:19:57.976Z,12.23
2019-03-01T12:22:02.134Z,12.16
2019-03-01T12:23:02.376Z,12.09
2019-03-01T12:25:06.553Z,12.05
2019-03-01T12:26:06.790Z,12.12
2019-03-01T12:27:59.922Z,12.17
2019-03-01T12:29:00.149Z,12.07
2019-03-01T12:31:04.304Z,11.90
2019-03-01T12:32:04.545Z,11.80
2019-03-01T12:34:09.017Z,11.78
2019-03-01T12:35:08.996Z,11.88
2019-03-01T12:37:13.154Z,11.78
2019-03-01T12:38:13.390Z,11.79
2019-03-01T12:40:17.570Z,11.76
2019-03-01T12:41:17.802Z,11.58
2019-03-01T12:43:21.976Z,11.43
2019-03-01T12:44:22.217Z,11.29
2019-03-01T12:46:26.373Z,11.28
2019-03-01T12:47:26.615Z,11.32
2019-03-01T12:49:30.799Z,11.37
2019-03-01T12:50:31.043Z,11.36
2019-03-01T12:52:35.196Z,11.61
2019-03-01T12:53:35.434Z,11.64
2019-03-01T12:55:39.616Z,11.75
2019-03-01T12:56:39.854Z,11.73
2019-03-01T12:58:32.956Z,11.79
2019-03-01T12:59:33.198Z,11.79
2019-03-01T13:01:37.351Z,11.70
2019-03-01T13:02:37.590Z,11.65
2019-03-01T13:04:41.769Z,11.76
2019-03-01T13:05:42.005Z,11.65
2019-03-01T13:07:46.194Z,11.52
2019-03-01T13:08:47.683Z,11.62
2019-03-01T13:10:50.609Z,11.73
2019-03-01T13:11:51.366Z,11.78
2019-03-01T13:13:55.033Z,11.90
2019-03-01T13:14:55.267Z,11.86
2019-03-01T13:17:01.712Z,11.91
2019-03-01T13:17:59.659Z,11.88
2019-03-01T13:20:03.839Z,12.02
2019-03-01T13:21:04.096Z,12.20
2019-03-01T13:23:08.230Z,12.34
2019-03-01T13:24:08.474Z,12.31
2019-03-01T13:26:12.647Z,12.34
2019-03-01T13:27:14.151Z,12.27
2019-03-01T13:29:19.141Z,12.23
2019-03-01T13:30:17.306Z,12.24
2019-03-01T13:32:23.108Z,12.16
2019-03-01T13:33:21.706Z,12.17
2019-03-01T13:35:27.259Z,12.37
2019-03-01T13:36:26.115Z,12.34
2019-03-01T13:38:19.199Z,12.32
2019-03-01T13:39:20.771Z,12.52
2019-03-01T13:41:25.286Z,12.50
2019-03-01T13:42:23.858Z,12.47
2019-03-01T13:44:28.037Z,12.13
2019-03-01T13:45:28.273Z,12.09
2019-03-01T13:47:32.430Z,12.14
2019-03-01T13:48:32.680Z,12.05
2019-03-01T13:50:38.225Z,11.91
2019-03-01T13:51:37.095Z,11.98
2019-03-01T13:53:48.733Z,12.07
2019-03-01T13:54:42.388Z,11.96
2019-03-01T13:56:45.669Z,11.88
2019-03-01T13:57:49.793Z,11.90
2019-03-01T13:59:50.087Z,11.78
2019-03-01T14:00:50.327Z,11.95
2019-03-01T14:02:54.480Z,12.39
2019-03-01T14:03:54.719Z,12.31
2019-03-01T14:05:58.897Z,12.17
2019-03-01T14:06:59.135Z,12.21
2019-03-01T14:09:03.288Z,12.16
2019-03-01T14:10:04.892Z,12.17
2019-03-01T14:12:07.713Z,11.94
2019-03-01T14:13:07.951Z,11.91
2019-03-01T14:15:12.130Z,11.60
2019-03-01T14:16:12.373Z,11.49
2019-03-01T14:18:05.457Z,10.89
2019-03-01T14:19:05.696Z,10.67
2019-03-01T14:21:09.877Z,10.15
2019-03-01T14:22:13.101Z,10.01
2019-03-01T14:24:14.274Z,9.72
2019-03-01T14:25:14.516Z,9.61
2019-03-01T14:27:18.690Z,9.61
2019-03-01T14:28:18.930Z,9.60
2019-03-01T14:30:25.151Z,9.50
2019-03-01T14:31:23.360Z,9.51
2019-03-01T14:33:29.937Z,9.38
2019-03-01T14:34:27.756Z,9.35
2019-03-01T14:36:31.932Z,9.36
2019-03-01T14:37:32.167Z,9.33
2019-03-01T14:39:36.318Z,9.29
2019-03-01T14:40:36.560Z,9.39
2019-03-01T14:42:43.816Z,9.28
2019-03-01T14:43:40.971Z,9.29
2019-03-01T14:45:45.597Z,9.26
2019-03-01T14:46:45.394Z,9.26
2019-03-01T14:48:38.473Z,9.28
2019-03-01T14:49:38.710Z,9.24
2019-03-01T14:51:46.543Z,9.24
2019-03-01T14:52:43.118Z,9.26
2019-03-01T14:54:47.269Z,9.20
2019-03-01T14:55:47.510Z,9.23
2019-03-01T14:57:51.681Z,9.32
2019-03-01T14:58:51.921Z,9.26
2019-03-01T15:00:56.074Z,9.28
2019-03-01T15:01:59.272Z,9.26
2019-03-01T15:04:00.487Z,9.29
2019-03-01T15:05:01.350Z,9.26
2019-03-01T15:07:04.892Z,9.29
2019-03-01T15:08:06.665Z,9.31
2019-03-01T15:10:09.282Z,9.29
2019-03-01T15:11:09.518Z,9.35
2019-03-01T15:13:13.694Z,9.42
2019-03-01T15:14:13.931Z,9.36
2019-03-01T15:16:18.108Z,9.40
2019-03-01T15:17:21.612Z,9.39
2019-03-01T15:19:22.496Z,9.47
2019-03-01T15:20:24.292Z,9.50
2019-03-01T15:22:26.918Z,9.48
2019-03-01T15:23:27.158Z,9.48
2019-03-01T15:25:31.306Z,9.68
2019-03-01T15:26:31.547Z,9.84
2019-03-01T15:28:24.643Z,9.71
2019-03-01T15:29:28.160Z,9.66
2019-03-01T15:31:29.055Z,9.61
2019-03-01T15:32:31.246Z,9.66
2019-03-01T15:34:33.452Z,9.57
2019-03-01T15:35:36.316Z,9.66
2019-03-01T15:37:37.862Z,9.61
2019-03-01T15:38:38.101Z,9.61
2019-03-01T15:40:42.262Z,9.61
2019-03-01T15:41:43.049Z,9.50
2019-03-01T15:43:46.666Z,9.50
2019-03-01T15:44:46.902Z,9.46
2019-03-01T15:46:51.130Z,9.36
2019-03-01T15:47:51.315Z,9.36
2019-03-01T15:49:55.464Z,9.29
2019-03-01T15:50:59.000Z,9.28
2019-03-01T15:52:59.898Z,9.35
2019-03-01T15:54:01.045Z,9.15
2019-03-01T15:56:05.858Z,9.14
2019-03-01T15:57:04.523Z,9.20
2019-03-01T15:59:09.673Z,9.17
2019-03-01T16:00:08.932Z,9.17
2019-03-01T16:02:13.117Z,9.11
2019-03-01T16:03:13.350Z,9.11
2019-03-01T16:05:17.504Z,9.10
2019-03-01T16:06:21.453Z,9.01
2019-03-01T16:08:10.827Z,9.08
2019-03-01T16:09:11.063Z,8.92
2019-03-01T16:11:15.247Z,8.98
2019-03-01T16:12:15.456Z,8.92
2019-03-01T16:14:20.989Z,8.95
2019-03-01T16:15:19.862Z,9.05
2019-03-01T16:17:24.611Z,9.01
2019-03-01T16:18:24.266Z,8.95
2019-03-01T16:20:29.190Z,8.95
2019-03-01T16:21:28.651Z,8.87
2019-03-01T16:23:32.818Z,8.92
2019-03-01T16:24:33.074Z,8.99
2019-03-01T16:26:37.841Z,8.96
2019-03-01T16:27:38.049Z,8.89
2019-03-01T16:29:43.187Z,8.96
2019-03-01T16:30:42.454Z,8.94
2019-03-01T16:32:49.732Z,8.94
2019-03-01T16:33:46.863Z,9.08
2019-03-01T16:35:51.635Z,8.92
2019-03-01T16:36:51.247Z,9.01
2019-03-01T16:38:55.420Z,9.08
2019-03-01T16:39:56.117Z,8.91
2019-03-01T16:41:59.833Z,8.89
2019-03-01T16:43:00.070Z,8.96
2019-03-01T16:45:04.216Z,8.87
2019-03-01T16:46:04.453Z,8.94
2019-03-01T16:47:57.563Z,8.96
2019-03-01T16:48:57.797Z,8.94
2019-03-01T16:51:01.946Z,8.87
2019-03-01T16:52:02.183Z,8.86
2019-03-01T16:54:06.359Z,8.95
2019-03-01T16:55:06.599Z,8.91
2019-03-01T16:57:11.808Z,8.80
2019-03-01T16:58:11.008Z,8.86
2019-03-01T17:00:18.262Z,8.87
2019-03-01T17:01:15.396Z,8.81
2019-03-01T17:03:19.568Z,8.79
2019-03-01T17:04:19.804Z,8.80
2019-03-01T17:06:24.969Z,8.81
2019-03-01T17:07:28.558Z,8.81
2019-03-01T17:09:29.382Z,8.74
2019-03-01T17:10:30.080Z,8.74
2019-03-01T17:12:33.784Z,8.71
2019-03-01T17:13:34.029Z,8.76
2019-03-01T17:15:38.171Z,8.68
2019-03-01T17:16:38.408Z,8.63
2019-03-01T17:18:31.507Z,8.59
2019-03-01T17:19:31.747Z,8.68
2019-03-01T17:21:35.909Z,8.73
2019-03-01T17:22:36.148Z,8.66
2019-03-01T17:24:40.315Z,8.66
2019-03-01T17:25:40.602Z,8.68
2019-03-01T17:27:44.790Z,8.65
2019-03-01T17:28:45.091Z,8.61
2019-03-01T17:30:50.774Z,8.50
2019-03-01T17:31:49.500Z,8.66
2019-03-01T17:33:53.730Z,8.53
2019-03-01T17:34:54.011Z,8.65
2019-03-01T17:36:58.160Z,8.65
2019-03-01T17:37:58.446Z,8.65
2019-03-01T17:40:02.655Z,8.50
2019-03-01T17:41:06.160Z,8.52
2019-03-01T17:43:07.202Z,8.45
2019-03-01T17:44:08.622Z,8.52
2019-03-01T17:46:11.712Z,8.44
2019-03-01T17:47:11.944Z,8.38
2019-03-01T17:49:16.182Z,8.44
2019-03-01T17:50:16.434Z,8.47
2019-03-01T17:52:20.584Z,8.40
2019-03-01T17:53:20.848Z,8.34
2019-03-01T17:55:25.021Z,8.28
2019-03-01T17:56:25.257Z,8.23
2019-03-01T17:58:18.412Z,8.28
2019-03-01T17:59:18.640Z,8.30
2019-03-01T18:01:22.807Z,8.30
2019-03-01T18:02:23.023Z,8.28
2019-03-01T18:04:27.201Z,8.28
2019-03-01T18:05:27.439Z,8.23
2019-03-01T18:07:31.622Z,8.12
2019-03-01T18:08:31.920Z,8.26
2019-03-01T18:10:36.184Z,8.10
2019-03-01T18:11:36.437Z,8.10
2019-03-01T18:13:40.623Z,7.98
2019-03-01T18:14:40.870Z,8.05
2019-03-01T18:16:45.092Z,8.02
2019-03-01T18:17:45.347Z,8.02
2019-03-01T18:19:49.526Z,7.90
2019-03-01T18:20:49.763Z,7.98
2019-03-01T18:22:53.912Z,7.98
2019-03-01T18:23:54.190Z,7.97
2019-03-01T18:25:59.590Z,8.02
2019-03-01T18:26:58.556Z,7.95
2019-03-01T18:29:04.801Z,7.86
2019-03-01T18:30:03.003Z,7.75
2019-03-01T18:32:09.943Z,7.79
2019-03-01T18:33:07.465Z,7.79
2019-03-01T18:35:12.232Z,7.75
2019-03-01T18:36:11.878Z,7.72
2019-03-01T18:38:04.949Z,7.69
2019-03-01T18:39:06.899Z,7.69
2019-03-01T18:41:11.124Z,7.67
2019-03-01T18:42:10.736Z,7.63
2019-03-01T18:44:14.953Z,7.60
2019-03-01T18:45:15.178Z,7.49
2019-03-01T18:47:19.328Z,7.58
2019-03-01T18:48:19.578Z,7.52
2019-03-01T18:50:23.790Z,7.53
2019-03-01T18:51:24.035Z,7.55
2019-03-01T18:53:28.873Z,7.49
2019-03-01T18:54:28.481Z,7.40
2019-03-01T18:56:32.709Z,7.49
2019-03-01T18:57:35.459Z,7.50
2019-03-01T18:59:37.133Z,7.28
2019-03-01T19:00:37.372Z,7.40
2019-03-01T19:02:41.535Z,7.28
2019-03-01T19:03:41.771Z,7.32
2019-03-01T19:05:45.989Z,7.20
2019-03-01T19:06:48.455Z,7.17
2019-03-01T19:08:40.481Z,7.07
2019-03-01T19:09:40.543Z,7.12
2019-03-01T19:11:44.730Z,7.10
2019-03-01T19:12:48.395Z,7.07
2019-03-01T19:14:49.109Z,7.07
2019-03-01T19:15:54.433Z,7.10
2019-03-01T19:17:53.575Z,7.12
2019-03-01T19:18:54.593Z,7.13
2019-03-01T19:20:58.072Z,7.13
2019-03-01T19:21:58.316Z,7.16
2019-03-01T19:24:04.764Z,7.25
2019-03-01T19:25:02.728Z,7.27
2019-03-01T19:27:09.275Z,7.25
2019-03-01T19:28:07.229Z,7.27
2019-03-01T19:30:13.534Z,7.30
2019-03-01T19:31:11.703Z,7.24
2019-03-01T19:33:17.235Z,7.21
2019-03-01T19:34:16.999Z,7.23
2019-03-01T19:36:20.440Z,7.13
2019-03-01T19:37:20.672Z,7.21
2019-03-01T19:39:24.826Z,7.12
2019-03-01T19:40:25.069Z,7.16
2019-03-01T19:42:29.487Z,7.09
2019-03-01T19:43:29.462Z,7.12
2019-03-01T19:45:33.608Z,7.02
2019-03-01T19:46:33.856Z,6.92
2019-03-01T19:48:26.946Z,6.94
2019-03-01T19:49:27.184Z,6.92
2019-03-01T19:51:33.719Z,6.87
2019-03-01T19:52:31.633Z,6.79
2019-03-01T19:54:36.549Z,6.71
2019-03-01T19:55:36.018Z,6.73
2019-03-01T19:57:40.181Z,6.66
2019-03-01T19:58:40.422Z,6.67
2019-03-01T20:00:44.563Z,6.64
2019-03-01T20:01:44.800Z,6.54
2019-03-01T20:03:48.970Z,6.49
2019-03-01T20:04:49.211Z,6.48
2019-03-01T20:06:53.420Z,6.51
2019-03-01T20:07:54.648Z,6.49
2019-03-01T20:09:57.797Z,6.44
2019-03-01T20:10:58.030Z,6.43
2019-03-01T20:13:02.200Z,6.54